createdAt,value
2022-08-01T00:00:16.482Z,19.60
2022-08-01T00:02:44.353Z,19.62
2022-08-01T00:05:13.048Z,19.62
2022-08-01T00:07:41.030Z,19.65
2022-08-01T00:10:19.586Z,19.64
2022-08-01T00:12:47.995Z,19.66
2022-08-01T00:15:21.591Z,19.65
2022-08-01T00:17:49.485Z,19.64
2022-08-01T00:20:17.464Z,19.66
2022-08-01T00:22:45.340Z,19.70
2022-08-01T00:25:13.381Z,19.72
2022-08-01T00:27:44.431Z,19.68
2022-08-01T00:30:14.801Z,19.62
2022-08-01T00:32:44.859Z,19.55
2022-08-01T00:35:14.342Z,19.47
2022-08-01T00:37:42.546Z,19.47
2022-08-01T00:40:11.190Z,19.36
2022-08-01T00:42:45.292Z,19.37
2022-08-01T00:45:13.656Z,19.33
2022-08-01T00:47:41.750Z,19.27
2022-08-01T00:50:12.164Z,19.32
2022-08-01T00:52:41.663Z,19.34
2022-08-01T00:55:15.165Z,19.39
2022-08-01T00:58:05.408Z,19.41
2022-08-01T01:00:53.082Z,19.45
2022-08-01T01:06:43.279Z,19.47
2022-08-01T01:09:25.706Z,19.50
2022-08-01T01:12:04.090Z,19.52
2022-08-01T01:14:47.152Z,19.47
2022-08-01T01:17:49.581Z,19.47
2022-08-01T01:20:16.148Z,19.49
2022-08-01T01:23:07.709Z,19.57
2022-08-01T01:25:48.666Z,19.56
2022-08-01T01:28:22.643Z,19.60
2022-08-01T01:30:54.458Z,19.56
2022-08-01T01:33:26.166Z,19.55
2022-08-01T01:36:14.870Z,19.51
2022-08-01T01:38:46.361Z,19.53
2022-08-01T01:41:16.256Z,19.50
2022-08-01T01:43:45.804Z,19.51
2022-08-01T01:46:19.123Z,19.50
2022-08-01T01:48:49.747Z,19.36
2022-08-01T01:51:25.943Z,19.36
2022-08-01T01:53:55.436Z,19.31
2022-08-01T01:56:24.994Z,19.20
2022-08-01T01:58:56.895Z,19.23
2022-08-01T02:01:58.323Z,19.20
2022-08-01T02:04:20.296Z,19.10
2022-08-01T02:06:53.835Z,19.08
2022-08-01T02:09:48.550Z,19.05
2022-08-01T02:12:18.343Z,18.99
2022-08-01T02:14:48.884Z,18.98
2022-08-01T02:17:20.614Z,18.96
2022-08-01T02:19:48.989Z,18.97
2022-08-01T02:22:28.013Z,18.97
2022-08-01T02:25:05.253Z,18.97
2022-08-01T02:27:43.900Z,18.99
2022-08-01T02:30:16.265Z,19.03
2022-08-01T02:32:48.757Z,19.06
2022-08-01T02:35:23.768Z,19.10
2022-08-01T02:37:52.199Z,19.10
2022-08-01T02:40:20.747Z,19.16
2022-08-01T02:42:52.386Z,19.19
2022-08-01T02:45:22.643Z,19.21
2022-08-01T02:47:56.284Z,19.22
2022-08-01T02:50:35.002Z,19.26
2022-08-01T02:53:05.948Z,19.25
2022-08-01T02:55:34.998Z,19.25
2022-08-01T02:58:04.692Z,19.25
2022-08-01T03:00:35.999Z,19.24
2022-08-01T03:03:12.251Z,19.23
2022-08-01T03:05:41.803Z,19.21
2022-08-01T03:08:14.617Z,19.20
2022-08-01T03:10:46.525Z,19.17
2022-08-01T03:13:17.239Z,19.19
2022-08-01T03:15:55.186Z,19.07
2022-08-01T03:18:27.978Z,19.20
2022-08-01T03:21:01.023Z,19.09
2022-08-01T03:23:38.245Z,19.20
2022-08-01T03:26:08.126Z,19.23
2022-08-01T03:28:42.355Z,19.19
2022-08-01T03:31:12.693Z,19.15
2022-08-01T03:33:42.495Z,19.19
2022-08-01T03:36:14.935Z,19.18
2022-08-01T03:38:46.070Z,19.12
2022-08-01T03:41:17.868Z,19.00
2022-08-01T03:44:06.865Z,18.90
2022-08-01T03:46:41.273Z,19.01
2022-08-01T03:49:16.445Z,18.98
2022-08-01T03:51:49.055Z,18.95
2022-08-01T03:54:19.705Z,18.93
2022-08-01T03:56:59.688Z,18.89
2022-08-01T03:59:32.108Z,18.88
2022-08-01T04:02:00.858Z,18.88
2022-08-01T04:04:33.318Z,18.90
2022-08-01T04:07:05.188Z,18.89
2022-08-01T04:09:35.963Z,18.91
2022-08-01T04:12:12.275Z,18.92
2022-08-01T04:14:40.637Z,18.90
2022-08-01T04:17:11.117Z,18.94
2022-08-01T04:19:43.189Z,18.97
2022-08-01T04:22:37.767Z,19.01
2022-08-01T04:25:21.524Z,19.04
2022-08-01T04:27:52.764Z,19.06
2022-08-01T04:30:24.655Z,19.06
2022-08-01T04:32:57.172Z,19.10
2022-08-01T04:36:01.757Z,19.12
2022-08-01T04:38:24.060Z,19.12
2022-08-01T04:40:56.850Z,19.07
2022-08-01T04:43:25.023Z,19.05
2022-08-01T04:46:00.687Z,19.07
2022-08-01T04:48:31.710Z,19.09
2022-08-01T04:51:05.895Z,18.99
2022-08-01T04:53:34.390Z,19.04
2022-08-01T04:56:02.322Z,19.07
2022-08-01T04:58:30.325Z,19.15
2022-08-01T05:01:20.017Z,19.22
2022-08-01T05:03:49.856Z,19.31
2022-08-01T05:06:32.377Z,19.47
2022-08-01T05:09:03.891Z,19.56
2022-08-01T05:11:31.925Z,19.70
2022-08-01T05:14:16.199Z,19.74
2022-08-01T05:16:46.849Z,19.72
2022-08-01T05:19:14.770Z,19.73
2022-08-01T05:21:46.967Z,19.75
2022-08-01T05:24:17.363Z,19.73
2022-08-01T05:26:45.568Z,19.73
2022-08-01T05:29:16.030Z,19.72
2022-08-01T05:31:44.059Z,19.79
2022-08-01T05:34:15.547Z,19.83
2022-08-01T05:36:43.948Z,19.81
2022-08-01T05:39:13.536Z,19.80
2022-08-01T05:41:45.266Z,19.75
2022-08-01T05:44:26.838Z,19.68
2022-08-01T05:46:57.448Z,19.64
2022-08-01T05:49:25.602Z,19.68
2022-08-01T05:51:53.660Z,19.74
2022-08-01T05:54:22.932Z,19.75
2022-08-01T05:57:03.196Z,19.82
2022-08-01T05:59:34.601Z,19.85
2022-08-01T06:02:03.233Z,19.87
2022-08-01T06:04:37.652Z,19.99
2022-08-01T06:07:12.939Z,19.97
2022-08-01T06:09:47.976Z,20.00
2022-08-01T06:12:15.914Z,20.03
2022-08-01T06:15:03.925Z,20.17
2022-08-01T06:17:34.373Z,20.25
2022-08-01T06:20:04.792Z,20.34
2022-08-01T06:22:32.818Z,20.29
2022-08-01T06:25:05.475Z,20.28
2022-08-01T06:27:38.553Z,20.21
2022-08-01T06:30:08.583Z,20.09
2022-08-01T06:32:36.450Z,19.91
2022-08-01T06:35:04.730Z,19.73
2022-08-01T06:37:33.918Z,19.61
2022-08-01T06:40:07.576Z,19.48
2022-08-01T06:42:46.747Z,19.50
2022-08-01T06:45:18.084Z,19.63
2022-08-01T06:47:50.506Z,19.91
2022-08-01T06:50:21.658Z,20.14
2022-08-01T06:52:51.256Z,20.35
2022-08-01T06:55:20.825Z,20.48
2022-08-01T06:57:50.282Z,20.54
2022-08-01T07:00:23.492Z,20.66
2022-08-01T07:02:52.000Z,20.76
2022-08-01T07:05:20.228Z,20.68
2022-08-01T07:07:49.010Z,20.73
2022-08-01T07:10:27.378Z,20.84
2022-08-01T07:12:55.998Z,20.88
2022-08-01T07:15:27.574Z,21.14
2022-08-01T07:18:00.954Z,21.14
2022-08-01T07:20:42.044Z,21.21
2022-08-01T07:23:22.726Z,21.68
2022-08-01T07:26:01.126Z,21.86
2022-08-01T07:28:30.255Z,21.77
2022-08-01T07:31:07.098Z,21.45
2022-08-01T07:33:48.762Z,21.26
2022-08-01T07:36:20.429Z,21.22
2022-08-01T07:38:49.580Z,21.29
2022-08-01T07:41:19.120Z,21.44
2022-08-01T07:43:56.630Z,21.53
2022-08-01T07:46:26.622Z,21.26
2022-08-01T07:49:02.232Z,20.94
2022-08-01T07:51:33.253Z,20.64
2022-08-01T07:54:05.139Z,20.51
2022-08-01T07:56:45.984Z,20.33
2022-08-01T07:59:16.025Z,20.19
2022-08-01T08:02:09.224Z,20.03
2022-08-01T08:04:37.537Z,20.19
2022-08-01T08:07:19.137Z,20.34
2022-08-01T08:10:03.276Z,20.39
2022-08-01T08:12:44.674Z,20.38
2022-08-01T08:15:13.128Z,20.40
2022-08-01T08:17:41.203Z,20.15
2022-08-01T08:20:11.831Z,20.28
2022-08-01T08:22:40.045Z,20.25
2022-08-01T08:25:16.822Z,20.50
2022-08-01T08:27:48.325Z,20.53
2022-08-01T08:30:27.735Z,20.69
2022-08-01T08:32:58.058Z,20.95
2022-08-01T08:35:40.251Z,21.16
2022-08-01T08:38:15.605Z,21.33
2022-08-01T08:40:43.926Z,21.13
2022-08-01T08:43:19.801Z,21.16
2022-08-01T08:45:59.439Z,21.34
2022-08-01T08:48:36.984Z,21.56
2022-08-01T08:51:09.668Z,21.57
2022-08-01T08:53:38.176Z,21.42
2022-08-01T08:56:13.633Z,21.47
2022-08-01T08:58:45.808Z,21.42
2022-08-01T09:01:14.979Z,21.52
2022-08-01T09:03:46.676Z,21.71
2022-08-01T09:06:15.184Z,21.67
2022-08-01T09:08:43.258Z,21.45
2022-08-01T09:11:13.873Z,21.54
2022-08-01T09:14:10.862Z,21.74
2022-08-01T09:16:47.996Z,21.66
2022-08-01T09:19:39.036Z,21.34
2022-08-01T09:22:14.522Z,21.37
2022-08-01T09:25:15.517Z,21.28
2022-08-01T09:27:46.208Z,21.25
2022-08-01T09:30:23.972Z,21.20
2022-08-01T09:33:01.774Z,21.43
2022-08-01T09:35:43.714Z,21.48
2022-08-01T09:38:24.985Z,21.76
2022-08-01T09:40:55.753Z,21.74
2022-08-01T09:43:27.354Z,21.87
2022-08-01T09:46:16.422Z,21.94
2022-08-01T09:49:10.691Z,22.13
2022-08-01T09:51:58.918Z,22.09
2022-08-01T09:54:35.768Z,22.27
2022-08-01T09:57:22.660Z,22.59
2022-08-01T09:59:59.892Z,22.47
2022-08-01T10:02:40.998Z,22.43
2022-08-01T10:05:21.118Z,22.36
2022-08-01T10:08:00.120Z,22.27
2022-08-01T10:10:28.884Z,22.19
2022-08-01T10:12:58.331Z,21.96
2022-08-01T10:15:37.294Z,21.64
2022-08-01T10:18:16.153Z,21.45
2022-08-01T10:20:57.955Z,21.16
2022-08-01T10:23:39.802Z,21.03
2022-08-01T10:26:11.601Z,20.86
2022-08-01T10:28:53.857Z,20.72
2022-08-01T10:31:30.457Z,20.70
2022-08-01T10:34:02.059Z,20.76
2022-08-01T10:36:35.948Z,21.09
2022-08-01T10:39:12.180Z,21.44
2022-08-01T10:42:11.183Z,21.89
2022-08-01T10:44:47.236Z,22.39
2022-08-01T10:47:50.787Z,22.73
2022-08-01T10:50:39.517Z,23.16
2022-08-01T10:53:31.552Z,23.44
2022-08-01T10:56:18.381Z,23.34
2022-08-01T10:58:49.568Z,22.70
2022-08-01T11:01:37.498Z,22.44
2022-08-01T11:04:42.689Z,22.16
2022-08-01T11:07:26.110Z,22.21
2022-08-01T11:10:14.863Z,21.95
2022-08-01T11:12:45.828Z,21.78
2022-08-01T11:15:49.665Z,21.73
2022-08-01T11:18:38.312Z,21.65
2022-08-01T11:21:58.128Z,21.78
2022-08-01T11:23:57.934Z,21.90
2022-08-01T11:27:16.604Z,22.18
2022-08-01T11:29:47.224Z,22.07
2022-08-01T11:32:28.791Z,22.39
2022-08-01T11:35:00.305Z,22.63
2022-08-01T11:37:37.045Z,22.65
2022-08-01T11:40:26.643Z,22.82
2022-08-01T11:43:23.915Z,23.12
2022-08-01T11:45:53.660Z,23.00
2022-08-01T11:48:27.621Z,23.02
2022-08-01T11:51:02.079Z,23.11
2022-08-01T11:53:32.124Z,23.05
2022-08-01T11:56:04.503Z,23.23
2022-08-01T11:58:34.646Z,23.28
2022-08-01T12:01:12.785Z,23.18
2022-08-01T12:03:40.773Z,23.04
2022-08-01T12:06:14.007Z,23.08
2022-08-01T12:08:44.690Z,23.04
2022-08-01T12:11:14.706Z,23.11
2022-08-01T12:13:46.209Z,23.19
2022-08-01T12:16:15.094Z,23.43
2022-08-01T12:18:46.332Z,23.77
2022-08-01T12:21:16.810Z,23.61
2022-08-01T12:24:05.009Z,23.40
2022-08-01T12:26:55.272Z,23.34
2022-08-01T12:29:41.241Z,23.53
2022-08-01T12:32:27.747Z,23.71
2022-08-01T12:35:13.248Z,23.69
2022-08-01T12:37:45.978Z,23.55
2022-08-01T12:40:18.615Z,23.57
2022-08-01T12:42:50.934Z,23.54
2022-08-01T12:45:28.256Z,23.66
2022-08-01T12:47:58.616Z,24.02
2022-08-01T12:50:45.212Z,24.14
2022-08-01T12:53:16.732Z,24.24
2022-08-01T12:55:59.463Z,24.56
2022-08-01T12:58:44.110Z,25.06
2022-08-01T13:01:15.133Z,25.13
2022-08-01T13:03:45.450Z,24.90
2022-08-01T13:06:16.575Z,24.95
2022-08-01T13:08:48.201Z,24.82
2022-08-01T13:11:19.042Z,24.50
2022-08-01T13:13:57.890Z,24.51
2022-08-01T13:16:49.059Z,24.71
2022-08-01T13:19:16.514Z,24.60
2022-08-01T13:22:12.097Z,24.47
2022-08-01T13:24:43.182Z,24.25
2022-08-01T13:27:39.589Z,24.01
2022-08-01T13:34:52.172Z,23.56
2022-08-01T13:37:37.146Z,23.66
2022-08-01T13:40:32.981Z,23.51
2022-08-01T13:47:31.009Z,24.00
2022-08-01T13:50:26.907Z,24.10
2022-08-01T13:53:35.734Z,24.36
2022-08-01T13:57:00.866Z,24.56
2022-08-01T14:00:20.420Z,24.57
2022-08-01T14:06:25.915Z,24.47
2022-08-01T14:08:59.666Z,24.32
2022-08-01T14:11:30.537Z,24.06
2022-08-01T14:14:15.450Z,23.88
2022-08-01T14:16:47.446Z,23.78
2022-08-01T14:19:38.845Z,23.87
2022-08-01T14:22:08.046Z,23.94
2022-08-01T14:24:36.299Z,23.99
2022-08-01T14:27:31.037Z,24.03
2022-08-01T14:30:04.258Z,23.93
2022-08-01T14:32:38.427Z,24.00
2022-08-01T14:35:09.827Z,23.99
2022-08-01T14:37:40.394Z,23.99
2022-08-01T14:40:11.582Z,24.12
2022-08-01T14:42:45.094Z,24.16
2022-08-01T14:45:19.124Z,24.23
2022-08-01T14:47:47.416Z,24.28
2022-08-01T14:50:28.870Z,24.22
2022-08-01T14:53:21.715Z,24.13
2022-08-01T14:55:49.691Z,23.95
2022-08-01T14:58:17.546Z,23.89
2022-08-01T15:00:59.153Z,23.73
2022-08-01T15:03:30.872Z,23.71
2022-08-01T15:06:03.350Z,23.84
2022-08-01T15:08:33.244Z,23.84
2022-08-01T15:11:02.254Z,23.86
2022-08-01T15:13:30.382Z,23.69
2022-08-01T15:15:59.942Z,23.75
2022-08-01T15:18:28.822Z,23.97
2022-08-01T15:20:59.385Z,23.89
2022-08-01T15:23:28.719Z,23.82
2022-08-01T15:26:00.166Z,23.74
2022-08-01T15:28:30.568Z,23.68
2022-08-01T15:31:01.906Z,23.68
2022-08-01T15:33:33.024Z,23.67
2022-08-01T15:36:00.913Z,23.47
2022-08-01T15:38:33.990Z,23.41
2022-08-01T15:41:01.932Z,23.35
2022-08-01T15:43:31.942Z,23.36
2022-08-01T15:46:00.153Z,23.40
2022-08-01T15:48:30.950Z,23.36
2022-08-01T15:50:59.289Z,23.19
2022-08-01T15:53:27.764Z,23.29
2022-08-01T15:55:57.244Z,23.44
2022-08-01T15:58:26.706Z,23.63
2022-08-01T16:03:46.798Z,23.68
2022-08-01T16:06:20.773Z,23.65
2022-08-01T16:08:49.116Z,23.61
2022-08-01T16:11:27.605Z,23.71
2022-08-01T16:14:00.021Z,23.88
2022-08-01T16:16:28.328Z,23.59
2022-08-01T16:19:10.189Z,23.40
2022-08-01T16:21:53.460Z,23.44
2022-08-01T16:24:21.532Z,23.34
2022-08-01T16:26:57.216Z,23.27
2022-08-01T16:29:25.824Z,23.29
2022-08-01T16:32:06.623Z,23.08
2022-08-01T16:34:49.874Z,23.02
2022-08-01T16:37:22.245Z,23.16
2022-08-01T16:39:52.524Z,23.28
2022-08-01T16:42:28.198Z,23.18
2022-08-01T16:44:56.252Z,23.16
2022-08-01T16:47:27.065Z,23.08
2022-08-01T16:49:55.096Z,23.01
2022-08-01T16:52:23.071Z,22.86
2022-08-01T16:54:57.954Z,22.87
2022-08-01T16:57:38.419Z,22.88
2022-08-01T17:00:08.611Z,22.84
2022-08-01T17:02:41.821Z,22.80
2022-08-01T17:05:12.450Z,22.76
2022-08-01T17:07:41.436Z,22.73
2022-08-01T17:10:11.725Z,22.72
2022-08-01T17:12:47.184Z,22.72
2022-08-01T17:15:15.056Z,22.65
2022-08-01T17:17:51.230Z,22.52
2022-08-01T17:20:19.193Z,22.51
2022-08-01T17:22:57.193Z,22.53
2022-08-01T17:25:27.615Z,22.58
2022-08-01T17:27:57.266Z,22.60
2022-08-01T17:30:25.417Z,22.79
2022-08-01T17:33:07.309Z,22.76
2022-08-01T17:35:43.410Z,22.62
2022-08-01T17:38:11.416Z,22.33
2022-08-01T17:40:40.747Z,22.18
2022-08-01T17:43:10.286Z,21.99
2022-08-01T17:45:50.901Z,21.89
2022-08-01T17:48:19.447Z,21.90
2022-08-01T17:50:51.747Z,21.82
2022-08-01T17:53:20.835Z,21.77
2022-08-01T17:55:55.893Z,21.75
2022-08-01T17:58:51.458Z,21.68
2022-08-01T18:01:29.879Z,21.61
2022-08-01T18:03:58.995Z,21.57
2022-08-01T18:06:27.358Z,21.54
2022-08-01T18:08:59.645Z,21.53
2022-08-01T18:11:37.258Z,21.36
2022-08-01T18:14:07.155Z,21.27
2022-08-01T18:16:35.282Z,21.21
2022-08-01T18:19:09.291Z,21.12
2022-08-01T18:21:42.425Z,21.14
2022-08-01T18:24:10.855Z,21.08
2022-08-01T18:26:44.762Z,21.04
2022-08-01T18:29:15.905Z,21.01
2022-08-01T18:31:55.962Z,20.97
2022-08-01T18:34:27.414Z,20.93
2022-08-01T18:36:56.543Z,20.84
2022-08-01T18:39:35.071Z,20.77
2022-08-01T18:42:32.433Z,20.68
2022-08-01T18:45:04.894Z,20.64
2022-08-01T18:47:32.979Z,20.52
2022-08-01T18:50:03.058Z,20.48
2022-08-01T18:52:32.030Z,20.41
2022-08-01T18:55:00.563Z,20.32
2022-08-01T18:57:28.440Z,20.26
2022-08-01T18:59:56.556Z,20.21
2022-08-01T19:02:25.780Z,20.14
2022-08-01T19:04:56.064Z,20.06
2022-08-01T19:07:39.383Z,19.99
2022-08-01T19:10:12.535Z,19.91
2022-08-01T19:12:40.598Z,19.70
2022-08-01T19:15:09.681Z,19.82
2022-08-01T19:17:45.283Z,19.77
2022-08-01T19:20:13.374Z,19.74
2022-08-01T19:22:50.325Z,19.68
2022-08-01T19:25:18.428Z,19.65
2022-08-01T19:27:48.953Z,19.62
2022-08-01T19:30:18.498Z,19.55
2022-08-01T19:33:00.493Z,19.51
2022-08-01T19:35:30.145Z,19.47
2022-08-01T19:38:02.360Z,19.42
2022-08-01T19:40:32.560Z,19.39
2022-08-01T19:43:04.389Z,19.37
2022-08-01T19:45:32.642Z,19.32
2022-08-01T19:48:02.379Z,19.25
2022-08-01T19:50:33.983Z,19.18
2022-08-01T19:53:05.582Z,19.10
2022-08-01T19:55:39.627Z,19.07
2022-08-01T19:58:26.279Z,19.04
2022-08-01T20:00:55.618Z,19.03
2022-08-01T20:03:25.211Z,18.98
2022-08-01T20:05:53.304Z,18.93
2022-08-01T20:08:22.530Z,18.88
2022-08-01T20:10:51.846Z,18.79
2022-08-01T20:13:20.811Z,18.73
2022-08-01T20:15:49.224Z,18.67
2022-08-01T20:18:17.379Z,18.62
2022-08-01T20:20:48.148Z,18.59
2022-08-01T20:23:18.716Z,18.53
2022-08-01T20:25:49.490Z,18.47
2022-08-01T20:28:22.494Z,18.49
2022-08-01T20:30:56.178Z,18.42
2022-08-01T20:33:24.730Z,18.36
2022-08-01T20:35:56.203Z,18.30
2022-08-01T20:38:29.499Z,18.30
2022-08-01T20:40:59.088Z,18.29
2022-08-01T20:43:27.991Z,18.23
2022-08-01T20:45:57.746Z,18.16
2022-08-01T20:48:28.029Z,18.09
2022-08-01T20:51:19.805Z,18.06
2022-08-01T20:53:52.518Z,18.00
2022-08-01T20:56:39.378Z,17.96
2022-08-01T20:59:39.785Z,17.90
2022-08-01T21:02:08.605Z,17.77
2022-08-01T21:04:49.278Z,17.76
2022-08-01T21:07:25.471Z,17.68
2022-08-01T21:10:00.661Z,17.65
2022-08-01T21:12:36.245Z,17.63
2022-08-01T21:15:05.399Z,17.49
2022-08-01T21:17:46.738Z,17.38
2022-08-01T21:20:16.121Z,17.31
2022-08-01T21:23:00.508Z,17.31
2022-08-01T21:25:31.814Z,17.24
2022-08-01T21:28:02.314Z,17.28
2022-08-01T21:30:31.687Z,17.29
2022-08-01T21:32:59.869Z,17.30
2022-08-01T21:35:28.253Z,17.22
2022-08-01T21:38:00.476Z,17.13
2022-08-01T21:40:28.619Z,17.08
2022-08-01T21:42:56.720Z,17.02
2022-08-01T21:45:27.241Z,16.94
2022-08-01T21:47:56.820Z,16.84
2022-08-01T21:50:25.236Z,16.76
2022-08-01T21:53:12.046Z,16.69
2022-08-01T21:55:52.433Z,16.66
2022-08-01T21:58:33.913Z,16.63
2022-08-01T22:01:11.330Z,16.61
2022-08-01T22:03:45.788Z,16.56
2022-08-01T22:06:15.256Z,16.56
2022-08-01T22:08:51.178Z,16.53
2022-08-01T22:11:24.468Z,16.52
2022-08-01T22:13:55.681Z,16.47
2022-08-01T22:16:26.055Z,16.40
2022-08-01T22:18:55.007Z,16.34
2022-08-01T22:21:32.536Z,16.26
2022-08-01T22:24:05.363Z,16.25
2022-08-01T22:26:38.267Z,16.20
2022-08-01T22:29:11.501Z,16.16
2022-08-01T22:31:47.884Z,16.09
2022-08-01T22:34:28.295Z,16.12
2022-08-01T22:36:59.406Z,16.09
2022-08-01T22:39:33.890Z,16.08
2022-08-01T22:42:04.522Z,16.04
2022-08-01T22:44:50.308Z,16.02
2022-08-01T22:47:41.011Z,15.97
2022-08-01T22:50:18.235Z,15.90
2022-08-01T22:53:16.863Z,15.86
2022-08-01T22:55:59.532Z,15.67
2022-08-01T22:58:31.725Z,15.80
2022-08-01T23:01:20.953Z,15.87
2022-08-01T23:03:56.990Z,15.83
2022-08-01T23:06:31.533Z,15.82
2022-08-01T23:09:01.504Z,15.80
2022-08-01T23:11:31.048Z,15.80
2022-08-01T23:14:01.162Z,15.80
2022-08-01T23:16:29.937Z,15.82
2022-08-01T23:19:00.319Z,15.84
2022-08-01T23:21:39.994Z,15.93
2022-08-01T23:24:11.436Z,15.99
2022-08-01T23:26:41.592Z,16.01
2022-08-01T23:29:11.112Z,16.00
2022-08-01T23:32:02.849Z,16.00
2022-08-01T23:34:26.946Z,16.01
2022-08-01T23:36:58.076Z,15.96
2022-08-01T23:39:26.120Z,15.92
2022-08-01T23:42:07.202Z,15.89
2022-08-01T23:44:35.899Z,15.87
2022-08-01T23:47:08.554Z,15.86
2022-08-01T23:49:53.477Z,15.82
2022-08-01T23:52:31.000Z,15.78
2022-08-01T23:55:14.769Z,15.80
2022-08-01T23:57:46.188Z,15.84
